Time;durP1;ratioP1;P1;durP2;ratioP2;P2;SDS_P1;SDS_P2;PMS_P1;PMS_P2;Temp;Humidity;BMP_temperature;BMP_pressure;BME280_temperature;BME280_humidity;BME280_pressure;Samples;Min_cycle;Max_cycle;Signal;HPM_P1;HPM_P2
2024/01/25 00:01:29;;;;;;;35.50;4.97;;;8.10;99.90;;;;;;5011149;28;20045;-81
2024/01/25 00:03:55;;;;;;;45.25;6.85;;;7.20;99.90;;;;;;4993462;28;20481;-81
2024/01/25 00:06:21;;;;;;;36.35;5.70;;;7.20;99.90;;;;;;5011954;28;20768;-82
2024/01/25 00:08:46;;;;;;;32.80;5.28;;;8.20;99.90;;;;;;5016772;28;20079;-82
2024/01/25 00:11:12;;;;;;;36.92;6.35;;;7.80;99.90;;;;;;4977262;28;20050;-81
2024/01/25 00:13:38;;;;;;;35.28;5.47;;;7.10;99.90;;;;;;4992773;28;20042;-81
2024/01/25 00:16:04;;;;;;;44.08;6.03;;;7.10;99.90;;;;;;5011027;28;20524;-81
2024/01/25 00:18:30;;;;;;;34.88;6.30;;;7.10;99.90;;;;;;4994304;28;20041;-81
2024/01/25 00:20:56;;;;;;;33.25;5.50;;;7.10;99.90;;;;;;4993377;28;20078;-81
2024/01/25 00:23:21;;;;;;;35.67;6.15;;;8.10;99.90;;;;;;4997285;28;20049;-81
2024/01/25 00:25:47;;;;;;;34.15;5.60;;;7.80;99.90;;;;;;5010862;28;20406;-81
2024/01/25 00:28:13;;;;;;;36.58;5.63;;;7.70;99.90;;;;;;4992912;28;20120;-81
2024/01/25 00:30:39;;;;;;;35.30;5.65;;;7.30;99.90;;;;;;5010706;28;20131;-80
2024/01/25 00:33:05;;;;;;;41.03;5.95;;;7.40;99.90;;;;;;4994340;28;20045;-80
2024/01/25 00:35:31;;;;;;;40.97;5.72;;;7.10;99.90;;;;;;5009137;28;20044;-81
2024/01/25 00:37:57;;;;;;;35.40;6.03;;;6.90;99.90;;;;;;5030393;28;20354;-81
2024/01/25 00:40:23;;;;;;;36.58;5.95;;;6.80;99.90;;;;;;5030645;28;20103;-81
2024/01/25 00:42:52;;;;;;;35.22;5.18;;;6.80;99.90;;;;;;5013262;28;20133;-80
2024/01/25 00:45:22;;;;;;;42.55;5.57;;;6.80;99.90;;;;;;5035494;28;20049;-81
2024/01/25 00:47:48;;;;;;;29.67;4.88;;;6.70;99.90;;;;;;5030250;28;20213;-81
2024/01/25 00:50:17;;;;;;;37.88;6.70;;;6.70;99.90;;;;;;5030469;28;20916;-82
2024/01/25 00:52:45;;;;;;;35.63;5.60;;;6.70;99.90;;;;;;5012497;28;20050;-82
2024/01/25 00:55:12;;;;;;;44.08;6.45;;;6.70;99.90;;;;;;5039299;28;20136;-81
2024/01/25 00:57:38;;;;;;;44.65;7.10;;;6.70;99.90;;;;;;5012686;28;20512;-81
2024/01/25 01:00:04;;;;;;;37.63;6.13;;;6.60;99.90;;;;;;5012359;28;20207;-81
2024/01/25 01:02:35;;;;;;;44.55;6.55;;;6.70;99.90;;;;;;5030148;28;20453;-81
2024/01/25 01:05:01;;;;;;;39.85;5.20;;;7.70;99.90;;;;;;5025657;28;20124;-81
2024/01/25 01:07:27;;;;;;;42.53;6.95;;;6.60;99.90;;;;;;5030388;28;20128;-81
2024/01/25 01:09:52;;;;;;;33.70;5.88;;;6.60;99.90;;;;;;5030580;28;20037;-81
2024/01/25 01:12:18;;;;;;;37.72;5.65;;;6.50;99.90;;;;;;5012623;28;20140;-81
2024/01/25 01:14:44;;;;;;;50.90;6.18;;;6.50;99.90;;;;;;5029977;28;20544;-80
2024/01/25 01:17:09;;;;;;;46.15;6.05;;;6.60;99.90;;;;;;5019270;28;20056;-80
2024/01/25 01:19:35;;;;;;;36.42;4.82;;;7.50;99.90;;;;;;5030509;28;20394;-80
2024/01/25 01:22:01;;;;;;;39.15;5.72;;;6.40;99.90;;;;;;5029991;28;20124;-81
2024/01/25 01:24:26;;;;;;;42.63;5.35;;;7.10;99.90;;;;;;5029897;28;20087;-81
2024/01/25 01:26:52;;;;;;;45.40;6.95;;;6.40;99.90;;;;;;5013852;28;20045;-81
2024/01/25 01:29:18;;;;;;;39.00;6.15;;;7.30;99.90;;;;;;5012525;28;20041;-81
2024/01/25 01:31:44;;;;;;;34.05;5.57;;;6.30;99.90;;;;;;5011755;28;20041;-81
2024/01/25 01:34:12;;;;;;;36.55;5.88;;;7.20;99.90;;;;;;5024249;28;20054;-81
2024/01/25 01:36:38;;;;;;;41.40;6.22;;;6.80;99.90;;;;;;5012292;28;20112;-81
2024/01/25 01:39:03;;;;;;;36.10;5.57;;;7.40;99.90;;;;;;4996109;28;20449;-81
2024/01/25 01:41:29;;;;;;;40.35;6.22;;;6.30;99.90;;;;;;5010099;28;20038;-81
2024/01/25 01:43:55;;;;;;;44.90;6.07;;;6.30;99.90;;;;;;4992400;28;20496;-81
2024/01/25 01:46:36;;;;;;;33.90;5.32;;;6.20;99.90;;;;;;5009927;28;20050;-81
2024/01/25 01:49:03;;;;;;;39.42;6.95;;;6.20;99.90;;;;;;4993730;28;20052;-81
2024/01/25 01:51:30;;;;;;;38.22;6.18;;;6.20;99.90;;;;;;5009859;28;20050;-81
2024/01/25 01:53:56;;;;;;;37.25;5.28;;;6.20;99.90;;;;;;5009941;28;20499;-81
2024/01/25 01:56:24;;;;;;;44.67;5.82;;;7.00;99.90;;;;;;4992475;28;20049;-82
2024/01/25 01:58:51;;;;;;;47.38;6.50;;;7.00;99.90;;;;;;4997361;28;20054;-81
2024/01/25 02:01:18;;;;;;;36.38;5.93;;;6.20;99.90;;;;;;5009635;28;20077;-81
2024/01/25 02:03:43;;;;;;;43.90;5.78;;;7.00;99.90;;;;;;5009553;28;20544;-81
2024/01/25 02:06:09;;;;;;;29.85;5.18;;;6.20;99.90;;;;;;5009561;28;20045;-81
2024/01/25 02:08:35;;;;;;;45.63;6.95;;;7.20;99.90;;;;;;5009270;28;20041;-81
2024/01/25 02:11:01;;;;;;;48.42;7.35;;;6.50;99.90;;;;;;4991599;28;20774;-81
2024/01/25 02:13:27;;;;;;;43.30;5.65;;;6.10;99.90;;;;;;4992006;28;20053;-82
2024/01/25 02:15:53;;;;;;;43.60;6.43;;;7.20;99.90;;;;;;5009564;28;20371;-81
2024/01/25 02:18:18;;;;;;;40.67;5.68;;;6.10;99.90;;;;;;4996728;28;20099;-80
2024/01/25 02:20:44;;;;;;;46.25;6.60;;;7.30;99.90;;;;;;5012531;28;20500;-81
2024/01/25 02:23:10;;;;;;;37.00;6.50;;;6.00;99.90;;;;;;5013006;28;20121;-81
2024/01/25 02:25:35;;;;;;;49.95;6.90;;;6.60;99.90;;;;;;5013097;28;20073;-81
2024/01/25 02:28:01;;;;;;;44.38;6.25;;;6.00;99.90;;;;;;5013051;28;20129;-81
2024/01/25 02:30:26;;;;;;;43.08;5.65;;;7.10;99.90;;;;;;5013058;28;20066;-81
2024/01/25 02:32:52;;;;;;;46.63;6.55;;;7.00;99.90;;;;;;5012785;28;20489;-80
2024/01/25 02:35:18;;;;;;;43.13;6.07;;;6.10;99.90;;;;;;5009066;28;20511;-81
2024/01/25 02:37:43;;;;;;;48.92;7.60;;;5.90;99.90;;;;;;5032460;28;20390;-81
2024/01/25 02:40:10;;;;;;;41.10;6.68;;;6.20;99.90;;;;;;5033785;28;20049;-81
2024/01/25 02:42:35;;;;;;;40.13;6.82;;;5.80;99.90;;;;;;5016579;28;20042;-81
2024/01/25 02:45:01;;;;;;;49.55;6.28;;;5.80;99.90;;;;;;5015212;28;20451;-82
2024/01/25 02:47:26;;;;;;;58.00;6.30;;;5.80;99.90;;;;;;5032467;28;20461;-79
2024/01/25 02:49:52;;;;;;;53.35;6.35;;;5.70;99.90;;;;;;5014486;28;20144;-81
2024/01/25 02:52:17;;;;;;;45.53;7.03;;;6.80;99.90;;;;;;5039219;28;20053;-81
2024/01/25 02:54:43;;;;;;;50.55;6.20;;;6.50;99.90;;;;;;5032378;28;20095;-82
2024/01/25 02:57:09;;;;;;;47.28;6.38;;;5.90;99.90;;;;;;5032387;28;20413;-80
2024/01/25 02:59:34;;;;;;;47.17;6.28;;;6.50;99.90;;;;;;5032026;28;20053;-80
2024/01/25 03:02:00;;;;;;;57.97;7.22;;;6.60;99.90;;;;;;5034314;28;20052;-81
2024/01/25 03:04:26;;;;;;;49.38;7.00;;;5.60;99.90;;;;;;5019861;28;20064;-81
2024/01/25 03:06:51;;;;;;;48.33;5.93;;;5.60;99.90;;;;;;5014366;28;20049;-81
2024/01/25 03:09:17;;;;;;;47.30;7.38;;;6.40;99.90;;;;;;5031988;28;20103;-81
2024/01/25 03:11:43;;;;;;;52.50;6.88;;;5.60;99.90;;;;;;5014234;28;20033;-81
2024/01/25 03:14:08;;;;;;;55.38;6.78;;;5.60;99.90;;;;;;5037971;28;20041;-81
2024/01/25 03:16:34;;;;;;;46.58;5.60;;;5.50;99.90;;;;;;5032005;28;20058;-81
2024/01/25 03:18:59;;;;;;;47.30;6.63;;;5.80;99.90;;;;;;5031777;28;20489;-79
2024/01/25 03:21:25;;;;;;;51.13;7.18;;;5.50;99.90;;;;;;5032097;28;20044;-81
2024/01/25 03:23:51;;;;;;;49.85;6.43;;;5.50;99.90;;;;;;5015052;28;20119;-81
2024/01/25 03:26:16;;;;;;;50.78;7.57;;;6.70;99.90;;;;;;5014039;28;20099;-80
2024/01/25 03:28:42;;;;;;;49.10;6.40;;;6.20;99.90;;;;;;5014432;28;20426;-82
2024/01/25 03:31:08;;;;;;;42.38;6.35;;;5.50;99.90;;;;;;5014364;28;20045;-81
2024/01/25 03:33:33;;;;;;;49.85;5.97;;;6.40;99.90;;;;;;5032676;28;20030;-81
2024/01/25 03:36:03;;;;;;;55.47;6.70;;;6.30;99.90;;;;;;5021392;28;20133;-82
2024/01/25 03:38:29;;;;;;;49.25;6.38;;;5.40;99.90;;;;;;5031853;28;20065;-81
2024/01/25 03:40:56;;;;;;;43.55;6.82;;;5.30;99.90;;;;;;5021396;28;20096;-81
2024/01/25 03:43:23;;;;;;;44.08;6.90;;;6.20;99.90;;;;;;5021067;28;20050;-81
2024/01/25 03:45:49;;;;;;;52.15;6.68;;;5.30;99.90;;;;;;5032039;28;20052;-82
2024/01/25 03:48:15;;;;;;;55.83;7.07;;;5.30;99.90;;;;;;5031374;28;20361;-80
2024/01/25 03:50:41;;;;;;;45.75;6.53;;;5.30;99.90;;;;;;5021621;28;20045;-81
2024/01/25 03:53:07;;;;;;;48.72;6.28;;;5.30;99.90;;;;;;5031057;28;20049;-80
2024/01/25 03:55:33;;;;;;;56.60;6.88;;;5.20;99.90;;;;;;5033291;28;20099;-81
2024/01/25 03:57:59;;;;;;;54.97;7.30;;;5.20;99.90;;;;;;5019176;28;20036;-80
2024/01/25 04:00:24;;;;;;;41.05;6.65;;;5.10;99.90;;;;;;5019072;28;20061;-80
2024/01/25 04:02:51;;;;;;;59.58;7.40;;;5.20;99.90;;;;;;5010834;28;20773;-81
2024/01/25 04:05:17;;;;;;;45.33;6.28;;;5.90;99.90;;;;;;5028476;28;20097;-82
2024/01/25 04:07:43;;;;;;;44.10;6.15;;;5.10;99.90;;;;;;5030416;28;20045;-79
2024/01/25 04:10:08;;;;;;;32.47;5.63;;;5.50;99.90;;;;;;5031040;28;20037;-81
2024/01/25 04:12:34;;;;;;;50.80;5.88;;;5.40;99.90;;;;;;5028427;28;20049;-81
2024/01/25 04:15:00;;;;;;;53.30;7.57;;;5.00;99.90;;;;;;5038510;28;20056;-81
2024/01/25 04:17:26;;;;;;;57.25;6.70;;;5.00;99.90;;;;;;5021033;28;20133;-81
2024/01/25 04:19:51;;;;;;;41.38;6.05;;;5.00;99.90;;;;;;5036104;28;20045;-80
2024/01/25 04:22:17;;;;;;;45.55;6.50;;;4.90;99.90;;;;;;5045042;28;20076;-81
2024/01/25 04:24:43;;;;;;;41.42;6.55;;;5.80;99.90;;;;;;5032827;28;20048;-80
2024/01/25 04:27:10;;;;;;;43.55;6.82;;;4.90;99.90;;;;;;5030206;28;20431;-81
2024/01/25 04:29:41;;;;;;;58.05;6.07;;;5.50;99.90;;;;;;5023726;28;20116;-81
2024/01/25 04:32:07;;;;;;;52.10;6.65;;;4.80;99.90;;;;;;5021413;28;20053;-80
2024/01/25 04:34:33;;;;;;;48.58;7.28;;;5.40;99.90;;;;;;5020481;28;20095;-80
2024/01/25 04:36:58;;;;;;;46.85;6.50;;;6.10;99.90;;;;;;5030445;28;20049;-80
2024/01/25 04:39:24;;;;;;;50.05;6.25;;;4.70;99.90;;;;;;5033839;28;20476;-80
2024/01/25 04:41:50;;;;;;;54.25;7.32;;;5.60;99.90;;;;;;5034833;28;20381;-80
2024/01/25 04:44:15;;;;;;;43.78;6.05;;;5.50;99.90;;;;;;5029861;28;20382;-81
2024/01/25 04:46:42;;;;;;;38.15;6.50;;;4.70;99.90;;;;;;5020644;28;20045;-81
2024/01/25 04:49:07;;;;;;;50.55;6.15;;;4.60;99.90;;;;;;5031456;28;20094;-80
2024/01/25 04:51:33;;;;;;;51.95;6.35;;;4.60;99.90;;;;;;5032204;28;20132;-81
2024/01/25 04:53:59;;;;;;;37.78;5.97;;;5.60;99.90;;;;;;5020281;28;20045;-81
2024/01/25 04:56:24;;;;;;;45.47;6.80;;;5.60;99.90;;;;;;5037864;28;20405;-80
2024/01/25 04:58:50;;;;;;;46.95;6.35;;;4.60;99.90;;;;;;5033865;28;20044;-80
2024/01/25 05:01:15;;;;;;;49.92;6.32;;;5.60;99.90;;;;;;5021220;28;20045;-80
2024/01/25 05:03:41;;;;;;;46.00;6.32;;;4.50;99.90;;;;;;5031854;28;20045;-80
2024/01/25 05:06:07;;;;;;;51.75;5.95;;;4.50;99.90;;;;;;5016540;28;20050;-80
2024/01/25 05:08:33;;;;;;;44.80;6.88;;;4.40;99.90;;;;;;5030229;28;20052;-80
2024/01/25 05:10:58;;;;;;;41.70;6.82;;;4.40;99.90;;;;;;5030920;28;20415;-81
2024/01/25 05:13:24;;;;;;;35.08;5.63;;;4.40;99.90;;;;;;5020785;28;20148;-81
2024/01/25 05:15:50;;;;;;;53.17;6.07;;;5.10;99.90;;;;;;5021303;28;20049;-82
2024/01/25 05:18:16;;;;;;;49.85;6.53;;;5.30;99.90;;;;;;5029990;28;20064;-81
2024/01/25 05:20:41;;;;;;;43.88;6.50;;;5.30;99.90;;;;;;5020481;28;20130;-81
2024/01/25 05:23:07;;;;;;;56.47;6.47;;;5.00;99.90;;;;;;5029923;28;20041;-82
2024/01/25 05:25:33;;;;;;;49.63;7.55;;;5.50;99.90;;;;;;5029789;28;20049;-80
2024/01/25 05:27:59;;;;;;;62.10;7.00;;;4.40;99.90;;;;;;5017683;28;20080;-80
2024/01/25 05:30:25;;;;;;;54.90;6.10;;;4.40;99.90;;;;;;5029859;28;20124;-81
2024/01/25 05:32:52;;;;;;;42.17;6.13;;;4.40;99.90;;;;;;5029129;28;20507;-80
2024/01/25 05:35:18;;;;;;;39.50;5.57;;;4.30;99.90;;;;;;5017312;28;20096;-80
2024/01/25 05:37:43;;;;;;;51.65;7.35;;;4.20;99.90;;;;;;4992196;28;20082;-81
2024/01/25 05:40:10;;;;;;;55.13;6.88;;;5.30;99.90;;;;;;5010508;28;20104;-81
2024/01/25 05:42:36;;;;;;;47.25;6.70;;;4.20;99.90;;;;;;5010269;28;20614;-80
2024/01/25 05:45:05;;;;;;;47.88;7.50;;;4.20;99.90;;;;;;5010040;28;20129;-80
2024/01/25 05:47:31;;;;;;;44.20;6.70;;;4.20;99.90;;;;;;5009724;28;20050;-80
2024/01/25 05:49:57;;;;;;;53.85;6.18;;;4.20;99.90;;;;;;4992267;28;20052;-80
2024/01/25 05:52:23;;;;;;;49.72;6.45;;;4.10;99.90;;;;;;5011109;28;20489;-81
2024/01/25 05:54:50;;;;;;;51.15;8.30;;;3.80;99.90;;;;;;4996722;28;20046;-81
2024/01/25 05:57:16;;;;;;;50.92;6.85;;;4.00;99.90;;;;;;5013834;28;20049;-81
2024/01/25 05:59:43;;;;;;;45.22;6.75;;;4.00;99.90;;;;;;4995942;28;20045;-81
2024/01/25 06:02:09;;;;;;;53.35;6.30;;;4.00;99.90;;;;;;5013810;28;20169;-81
2024/01/25 06:04:34;;;;;;;54.72;6.95;;;4.10;99.90;;;;;;4999460;28;20485;-81
2024/01/25 06:07:00;;;;;;;56.20;6.93;;;4.80;99.90;;;;;;4995344;28;20050;-81
2024/01/25 06:09:25;;;;;;;40.15;5.95;;;4.00;99.90;;;;;;4995868;28;20108;-80
2024/01/25 06:11:51;;;;;;;55.83;7.18;;;4.00;99.90;;;;;;5006737;28;20565;-80
2024/01/25 06:14:17;;;;;;;54.42;7.38;;;4.00;99.90;;;;;;5020875;28;20405;-80
2024/01/25 06:16:44;;;;;;;45.35;6.38;;;4.00;99.90;;;;;;4995511;28;20136;-81
2024/01/25 06:19:10;;;;;;;43.05;6.28;;;5.10;99.90;;;;;;5012694;28;20053;-80
2024/01/25 06:21:37;;;;;;;36.95;6.90;;;4.00;99.90;;;;;;5013157;28;20099;-81
2024/01/25 06:24:04;;;;;;;47.17;5.97;;;4.30;99.90;;;;;;4995384;28;20045;-81
2024/01/25 06:26:30;;;;;;;52.65;6.22;;;3.90;99.90;;;;;;4995300;28;20046;-83
2024/01/25 06:28:56;;;;;;;51.05;6.80;;;3.90;99.90;;;;;;5013168;28;20077;-81
2024/01/25 06:31:22;;;;;;;51.70;6.80;;;3.80;99.90;;;;;;5012995;28;20041;-81
2024/01/25 06:33:50;;;;;;;56.20;7.13;;;3.80;99.90;;;;;;5012584;28;20045;-82
2024/01/25 06:36:16;;;;;;;56.13;6.65;;;3.80;99.90;;;;;;5004680;28;20052;-81
2024/01/25 06:38:42;;;;;;;45.78;5.20;;;4.70;99.90;;;;;;5012684;28;20581;-80
2024/01/25 06:41:08;;;;;;;46.78;6.50;;;3.70;99.90;;;;;;4995083;28;20096;-82
2024/01/25 06:43:34;;;;;;;48.85;6.13;;;3.70;99.90;;;;;;5014137;28;20436;-82
2024/01/25 06:46:00;;;;;;;47.70;5.63;;;3.70;99.90;;;;;;5004237;28;20053;-81
2024/01/25 06:48:25;;;;;;;43.97;6.70;;;3.70;99.90;;;;;;5012879;28;20064;-81
2024/01/25 06:50:51;;;;;;;44.50;6.15;;;4.60;99.90;;;;;;5019430;28;20744;-80
2024/01/25 06:53:17;;;;;;;47.97;6.30;;;5.00;99.90;;;;;;4995792;28;20119;-79
2024/01/25 06:55:43;;;;;;;43.58;7.47;;;3.60;99.90;;;;;;5005738;28;20393;-80
2024/01/25 06:58:08;;;;;;;40.60;6.53;;;3.50;99.90;;;;;;5014290;28;20074;-81
2024/01/25 07:00:34;;;;;;;61.70;7.20;;;3.50;99.90;;;;;;5023777;28;20480;-79
2024/01/25 07:03:00;;;;;;;41.08;6.10;;;3.50;99.90;;;;;;5011936;28;20041;-80
2024/01/25 07:05:26;;;;;;;48.83;6.95;;;3.50;99.90;;;;;;4977713;28;20060;-80
2024/01/25 07:07:52;;;;;;;49.40;6.68;;;3.50;99.90;;;;;;5011819;28;20037;-80
2024/01/25 07:10:18;;;;;;;54.90;7.13;;;3.50;99.90;;;;;;5023011;28;20484;-84
2024/01/25 07:12:43;;;;;;;45.40;6.47;;;3.50;99.90;;;;;;5013220;28;20505;-84
2024/01/25 07:15:09;;;;;;;49.90;7.82;;;3.50;99.90;;;;;;4994211;28;20119;-84
2024/01/25 07:17:35;;;;;;;51.58;6.70;;;3.40;99.90;;;;;;5012325;28;20104;-84
2024/01/25 07:20:00;;;;;;;49.30;6.32;;;4.20;99.90;;;;;;5012252;28;20489;-84
2024/01/25 07:22:26;;;;;;;50.70;6.32;;;4.70;99.90;;;;;;5011889;28;20042;-84
2024/01/25 07:24:52;;;;;;;48.20;6.55;;;3.30;99.90;;;;;;4993859;28;20492;-84
2024/01/25 07:27:18;;;;;;;59.70;7.55;;;3.30;99.90;;;;;;5012181;28;20044;-84
2024/01/25 07:29:45;;;;;;;48.30;5.25;;;3.70;99.90;;;;;;4994533;28;20048;-84
2024/01/25 07:32:11;;;;;;;49.92;5.85;;;4.60;99.90;;;;;;5004271;28;20100;-84
2024/01/25 07:34:37;;;;;;;56.47;6.95;;;3.40;99.90;;;;;;4994312;28;20120;-84
2024/01/25 07:37:03;;;;;;;57.85;6.60;;;4.10;99.90;;;;;;5011758;28;20489;-84
2024/01/25 07:39:29;;;;;;;39.33;5.38;;;3.40;99.90;;;;;;5011257;28;20049;-84
2024/01/25 07:41:54;;;;;;;58.90;7.38;;;3.40;99.90;;;;;;5011749;28;20049;-84
2024/01/25 07:44:20;;;;;;;58.92;7.78;;;3.40;99.90;;;;;;5011754;28;20034;-84
2024/01/25 07:46:47;;;;;;;53.13;6.32;;;4.40;99.90;;;;;;4993883;28;20405;-84
2024/01/25 07:49:13;;;;;;;45.70;6.38;;;3.50;99.90;;;;;;4993983;28;20050;-83
2024/01/25 07:51:38;;;;;;;57.70;7.30;;;4.90;99.90;;;;;;4994158;28;20049;-85
2024/01/25 07:54:04;;;;;;;45.53;5.95;;;4.30;99.90;;;;;;5011338;28;20045;-83
2024/01/25 07:56:30;;;;;;;59.80;7.82;;;3.50;99.90;;;;;;4993394;28;20080;-85
2024/01/25 07:58:56;;;;;;;67.93;7.90;;;3.80;99.90;;;;;;5011334;28;20452;-84
2024/01/25 08:01:22;;;;;;;63.20;7.15;;;4.20;99.90;;;;;;5011446;28;20046;-84
2024/01/25 08:03:47;;;;;;;54.35;7.20;;;3.60;99.90;;;;;;5013352;28;20396;-84
2024/01/25 08:06:13;;;;;;;57.08;6.18;;;5.10;99.90;;;;;;4993212;28;20485;-84
2024/01/25 08:08:39;;;;;;;59.25;7.78;;;3.90;99.90;;;;;;4994187;28;20390;-85
2024/01/25 08:11:05;;;;;;;63.63;7.05;;;4.40;99.90;;;;;;4993816;28;20211;-82
2024/01/25 08:13:31;;;;;;;62.65;7.50;;;3.80;99.90;;;;;;5009575;28;20499;-84
2024/01/25 08:15:57;;;;;;;59.65;7.80;;;4.20;99.90;;;;;;4976935;28;20196;-84
2024/01/25 08:18:23;;;;;;;54.60;7.93;;;3.80;99.90;;;;;;4993762;28;20107;-84
2024/01/25 08:20:52;;;;;;;57.58;6.80;;;3.80;99.90;;;;;;5011296;28;20050;-83
2024/01/25 08:23:18;;;;;;;52.72;7.10;;;3.80;99.90;;;;;;4978190;28;20045;-83
2024/01/25 08:25:44;;;;;;;42.95;6.82;;;4.90;99.90;;;;;;5010321;28;20052;-84
2024/01/25 08:28:10;;;;;;;51.05;7.68;;;4.80;99.90;;;;;;5010632;28;20085;-84
2024/01/25 08:30:36;;;;;;;58.72;7.22;;;3.90;99.90;;;;;;4993304;28;20124;-84
2024/01/25 08:33:01;;;;;;;49.28;6.55;;;4.60;99.90;;;;;;4993267;28;20060;-83
2024/01/25 08:35:30;;;;;;;46.90;7.22;;;3.90;99.90;;;;;;5010665;28;20131;-83
2024/01/25 08:37:55;;;;;;;47.70;7.47;;;4.00;99.90;;;;;;5010623;28;20413;-82
2024/01/25 08:40:21;;;;;;;55.20;7.03;;;4.00;99.90;;;;;;5010498;28;20042;-83
2024/01/25 08:42:47;;;;;;;48.95;7.78;;;4.00;99.90;;;;;;5010246;28;20042;-83
2024/01/25 08:45:13;;;;;;;46.55;6.45;;;5.10;99.90;;;;;;5010627;28;20092;-83
2024/01/25 08:47:39;;;;;;;55.90;7.65;;;4.00;99.90;;;;;;5010597;28;20085;-83
2024/01/25 08:50:10;;;;;;;56.63;7.35;;;4.00;99.90;;;;;;5010551;28;20064;-82
2024/01/25 08:52:37;;;;;;;39.50;7.03;;;4.20;99.90;;;;;;4992732;28;20054;-83
2024/01/25 08:55:04;;;;;;;60.10;8.52;;;5.30;99.90;;;;;;4992938;28;20037;-82
2024/01/25 08:57:30;;;;;;;69.55;7.90;;;4.20;99.90;;;;;;5010606;28;20041;-82
2024/01/25 08:59:58;;;;;;;64.10;8.55;;;4.10;99.90;;;;;;5010095;28;20053;-84
2024/01/25 09:02:26;;;;;;;49.90;7.78;;;4.70;99.90;;;;;;4992601;28;20089;-83
2024/01/25 09:04:53;;;;;;;52.45;7.00;;;4.30;99.90;;;;;;5010461;28;20052;-83
2024/01/25 09:07:19;;;;;;;49.97;8.07;;;5.60;99.90;;;;;;4992238;28;20068;-83
2024/01/25 09:09:45;;;;;;;49.67;6.88;;;4.40;99.90;;;;;;4993986;28;20065;-82
2024/01/25 09:12:12;;;;;;;60.90;7.63;;;4.40;99.90;;;;;;4992729;28;20496;-91
2024/01/25 09:14:38;;;;;;;61.88;7.15;;;4.70;99.90;;;;;;4993847;28;20058;-90
2024/01/25 09:17:04;;;;;;;50.72;7.22;;;4.50;99.90;;;;;;5010514;28;20056;-86
2024/01/25 09:19:30;;;;;;;58.83;7.45;;;5.90;99.90;;;;;;5010360;28;20054;-83
2024/01/25 09:21:58;;;;;;;58.42;7.20;;;4.60;99.90;;;;;;5016801;28;20132;-82
2024/01/25 09:24:23;;;;;;;53.67;7.38;;;4.70;99.90;;;;;;4992468;28;20496;-83
2024/01/25 09:26:49;;;;;;;62.00;7.13;;;4.70;99.90;;;;;;4999753;28;20095;-81
2024/01/25 09:29:15;;;;;;;61.85;6.90;;;4.80;99.90;;;;;;5016884;28;20049;-80
2024/01/25 09:31:40;;;;;;;57.50;9.18;;;4.80;99.90;;;;;;5013741;28;20046;-80
2024/01/25 09:34:06;;;;;;;52.25;7.38;;;4.90;99.90;;;;;;4995771;28;20057;-80
2024/01/25 09:36:32;;;;;;;58.70;8.00;;;5.90;99.90;;;;;;5014372;28;20392;-81
2024/01/25 09:38:58;;;;;;;54.88;7.10;;;5.00;99.90;;;;;;4996193;28;20082;-81
2024/01/25 09:41:24;;;;;;;53.85;7.40;;;5.40;99.90;;;;;;5013777;28;20054;-83
2024/01/25 09:43:49;;;;;;;61.45;8.38;;;5.00;99.90;;;;;;5015719;28;20053;-83
2024/01/25 09:46:16;;;;;;;63.42;9.05;;;6.20;99.90;;;;;;5000504;28;20053;-82
2024/01/25 09:48:45;;;;;;;54.88;7.25;;;5.20;99.90;;;;;;5014003;28;20041;-85
2024/01/25 09:51:12;;;;;;;47.47;6.45;;;5.20;99.90;;;;;;4995953;28;20050;-83
2024/01/25 09:53:40;;;;;;;50.78;7.55;;;6.20;99.90;;;;;;4996375;28;20046;-84
2024/01/25 09:56:08;;;;;;;53.78;7.63;;;6.40;99.90;;;;;;4980375;28;20552;-85
2024/01/25 09:58:45;;;;;;;42.22;8.13;;;5.30;99.90;;;;;;5018736;28;20116;-85
2024/01/25 10:01:15;;;;;;;55.45;8.40;;;5.40;99.90;;;;;;5013850;28;20045;-84
2024/01/25 10:03:47;;;;;;;57.15;8.70;;;6.20;99.90;;;;;;5004905;28;20088;-82
2024/01/25 10:06:14;;;;;;;46.08;7.30;;;5.80;99.90;;;;;;5013474;28;20038;-83
2024/01/25 10:08:40;;;;;;;54.78;7.72;;;5.50;99.90;;;;;;4995855;28;20061;-84
2024/01/25 10:11:07;;;;;;;65.25;7.45;;;6.60;99.90;;;;;;4995789;28;20042;-83
2024/01/25 10:13:40;;;;;;;49.78;6.80;;;5.60;99.90;;;;;;4979251;28;20053;-88
2024/01/25 10:16:06;;;;;;;41.47;7.22;;;6.80;99.90;;;;;;5012142;28;20054;-84
2024/01/25 10:18:32;;;;;;;51.85;7.18;;;5.60;99.90;;;;;;4978985;28;20116;-84
2024/01/25 10:21:00;;;;;;;52.92;8.15;;;6.70;99.90;;;;;;5013216;28;20073;-85
2024/01/25 10:23:25;;;;;;;52.17;6.97;;;7.00;99.90;;;;;;4979219;28;20081;-84
2024/01/25 10:25:51;;;;;;;43.65;6.70;;;5.80;99.90;;;;;;4979079;28;20093;-84
2024/01/25 10:28:17;;;;;;;45.63;7.43;;;5.80;99.90;;;;;;5013327;28;20122;-83
2024/01/25 10:30:43;;;;;;;49.33;7.53;;;6.30;99.90;;;;;;5013157;28;20041;-84
2024/01/25 10:33:10;;;;;;;54.38;7.75;;;5.30;99.90;;;;;;4995327;28;20401;-85
2024/01/25 10:35:37;;;;;;;42.05;8.18;;;7.50;99.90;;;;;;4996837;28;20054;-84
2024/01/25 10:38:04;;;;;;;49.35;7.90;;;7.20;99.90;;;;;;5011889;28;20068;-85
2024/01/25 10:40:29;;;;;;;52.20;8.57;;;6.60;99.90;;;;;;4979174;28;20046;-86
2024/01/25 10:42:55;;;;;;;52.42;8.65;;;7.70;99.90;;;;;;5016305;28;20042;-85
2024/01/25 10:45:21;;;;;;;47.40;7.88;;;7.80;99.90;;;;;;4979026;28;20060;-85
2024/01/25 10:47:49;;;;;;;43.60;7.07;;;8.20;99.90;;;;;;5013082;28;20049;-84
2024/01/25 10:50:15;;;;;;;63.13;8.00;;;8.00;99.90;;;;;;5012289;28;20048;-85
2024/01/25 10:52:42;;;;;;;45.22;8.00;;;8.40;99.90;;;;;;4994880;28;20425;-85
2024/01/25 10:55:09;;;;;;;47.08;8.23;;;8.00;99.90;;;;;;4995043;28;20100;-85
2024/01/25 10:57:39;;;;;;;46.70;7.55;;;8.50;99.90;;;;;;4986911;28;20397;-85
2024/01/25 11:00:11;;;;;;;43.05;7.65;;;8.10;99.90;;;;;;4994678;28;20050;-85
2024/01/25 11:02:40;;;;;;;47.72;7.32;;;7.30;99.90;;;;;;4994798;28;20053;-85
2024/01/25 11:05:12;;;;;;;54.75;7.82;;;8.10;99.90;;;;;;4994724;28;20085;-86
2024/01/25 11:07:56;;;;;;;42.92;6.90;;;7.40;99.90;;;;;;5011976;28;20058;-84
2024/01/25 11:10:25;;;;;;;35.87;7.07;;;8.40;99.90;;;;;;5012559;28;20037;-85
2024/01/25 11:12:59;;;;;;;41.85;7.28;;;8.40;99.90;;;;;;5004308;28;20050;-86
2024/01/25 11:15:33;;;;;;;46.08;7.13;;;7.60;99.90;;;;;;5012190;28;20049;-85
2024/01/25 11:17:59;;;;;;;45.13;7.88;;;8.00;99.90;;;;;;4986803;28;20674;-85
2024/01/25 11:20:27;;;;;;;42.72;8.35;;;7.60;99.90;;;;;;5016169;28;20081;-84
2024/01/25 11:23:03;;;;;;;43.20;7.00;;;7.50;99.90;;;;;;5011402;28;20493;-84
2024/01/25 11:25:37;;;;;;;47.70;7.65;;;7.60;99.90;;;;;;5019361;28;20505;-84
2024/01/25 11:28:05;;;;;;;37.67;6.35;;;7.50;99.90;;;;;;5003708;28;20093;-85
2024/01/25 11:30:33;;;;;;;42.83;8.13;;;7.60;99.90;;;;;;4977892;28;20042;-84
2024/01/25 11:32:59;;;;;;;45.60;8.38;;;8.30;99.90;;;;;;5011990;28;20050;-85
2024/01/25 11:35:25;;;;;;;44.97;7.90;;;7.50;99.90;;;;;;5014206;28;20405;-84
2024/01/25 11:37:53;;;;;;;40.47;7.28;;;8.50;99.90;;;;;;4997087;28;20045;-84
2024/01/25 11:40:19;;;;;;;45.38;7.80;;;8.60;99.90;;;;;;5004098;28;20099;-85
2024/01/25 11:42:47;;;;;;;47.00;7.50;;;8.50;99.90;;;;;;5011760;28;20046;-84
2024/01/25 11:45:16;;;;;;;37.45;7.70;;;8.50;99.90;;;;;;4993859;28;20045;-85
2024/01/25 11:47:43;;;;;;;38.65;7.10;;;7.90;99.90;;;;;;4994734;28;20049;-85
2024/01/25 11:50:11;;;;;;;50.75;8.13;;;7.70;99.90;;;;;;4994807;28;20045;-84
2024/01/25 11:52:37;;;;;;;49.53;8.90;;;7.60;99.90;;;;;;5011291;28;20516;-84
2024/01/25 11:55:08;;;;;;;36.15;6.80;;;8.80;99.90;;;;;;5011045;28;20050;-85
2024/01/25 11:57:43;;;;;;;36.42;6.68;;;7.80;99.90;;;;;;4987540;28;20439;-85
2024/01/25 12:00:10;;;;;;;32.42;6.60;;;8.30;99.90;;;;;;5011524;28;20054;-85
2024/01/25 12:02:39;;;;;;;43.92;7.25;;;7.80;99.90;;;;;;5011332;28;20061;-85
2024/01/25 12:05:06;;;;;;;37.97;6.50;;;7.80;99.90;;;;;;4977660;28;20046;-85
2024/01/25 12:07:32;;;;;;;43.88;6.95;;;8.80;99.90;;;;;;4994798;28;20046;-85
2024/01/25 12:10:17;;;;;;;44.47;7.10;;;7.80;99.90;;;;;;4995473;28;20041;-84
2024/01/25 12:12:43;;;;;;;42.40;7.13;;;7.80;99.90;;;;;;5012639;28;20050;-84
2024/01/25 12:15:09;;;;;;;37.08;6.57;;;8.80;99.90;;;;;;5014505;28;20045;-83
2024/01/25 12:17:41;;;;;;;34.63;7.18;;;7.80;99.90;;;;;;5011418;28;20046;-84
2024/01/25 12:20:10;;;;;;;44.83;7.13;;;8.50;99.90;;;;;;4993657;28;20064;-84
2024/01/25 12:22:37;;;;;;;42.28;5.60;;;7.80;99.90;;;;;;5010813;28;20049;-82
2024/01/25 12:25:07;;;;;;;39.50;5.95;;;8.10;99.90;;;;;;5010713;28;20045;-84
2024/01/25 12:27:33;;;;;;;31.75;6.15;;;7.80;99.90;;;;;;4993053;28;20053;-83
2024/01/25 12:29:58;;;;;;;38.65;6.18;;;9.10;99.90;;;;;;4993158;28;20115;-84
2024/01/25 12:32:24;;;;;;;45.13;6.38;;;9.10;99.90;;;;;;5018835;28;20451;-84
2024/01/25 12:34:54;;;;;;;49.25;6.78;;;8.10;99.90;;;;;;4998346;28;20081;-82
2024/01/25 12:37:20;;;;;;;38.10;6.00;;;9.20;99.90;;;;;;5030392;28;20483;-84
2024/01/25 12:39:46;;;;;;;31.38;5.82;;;8.80;99.90;;;;;;5012412;28;20196;-85
2024/01/25 12:42:12;;;;;;;45.28;6.95;;;9.20;99.90;;;;;;5032096;28;20111;-85
2024/01/25 12:44:39;;;;;;;42.78;7.18;;;8.50;99.90;;;;;;5012804;28;20124;-84